Time;durP1;ratioP1;P1;durP2;ratioP2;P2;SDS_P1;SDS_P2;PMS_P1;PMS_P2;Temp;Humidity;BMP_temperature;BMP_pressure;BME280_temperature;BME280_humidity;BME280_pressure;Samples;Min_cycle;Max_cycle;Signal;HPM_P1;HPM_P2
2022/07/22 00:01:07;;;;;;;4.80;2.70;;;;;;;27.37;30.75;100243.50;5072238;28;20076;-74
2022/07/22 00:03:35;;;;;;;4.25;2.78;;;;;;;27.48;30.87;100246.72;5073210;28;20036;-73
2022/07/22 00:06:04;;;;;;;5.07;2.38;;;;;;;27.45;31.21;100244.38;5073284;28;20566;-74
2022/07/22 00:08:32;;;;;;;4.82;2.60;;;;;;;27.35;31.31;100251.06;5071243;28;20127;-74
2022/07/22 00:11:06;;;;;;;5.10;2.30;;;;;;;27.25;31.61;100247.84;5071872;28;20055;-74
2022/07/22 00:13:34;;;;;;;5.47;2.78;;;;;;;27.14;32.73;100253.03;5071760;28;20102;-73
2022/07/22 00:16:03;;;;;;;6.40;2.83;;;;;;;27.05;32.83;100252.34;5073154;28;20127;-73
2022/07/22 00:18:33;;;;;;;6.75;3.42;;;;;;;26.95;34.15;100240.88;5073055;28;20041;-74
2022/07/22 00:21:01;;;;;;;5.00;3.00;;;;;;;26.81;34.91;100254.41;5073229;28;20393;-71
2022/07/22 00:23:29;;;;;;;9.95;3.15;;;;;;;26.64;34.46;100253.03;5071607;28;20080;-72
2022/07/22 00:25:58;;;;;;;4.82;2.80;;;;;;;26.52;35.05;100257.31;5073337;28;20083;-73
2022/07/22 00:28:27;;;;;;;8.70;3.00;;;;;;;26.53;34.59;100259.00;5072935;28;20045;-73
2022/07/22 00:30:56;;;;;;;5.20;2.75;;;;;;;26.69;34.47;100266.94;5073138;28;20123;-73
2022/07/22 00:33:24;;;;;;;7.75;2.90;;;;;;;26.60;34.22;100257.19;5073007;28;20041;-73
2022/07/22 00:35:54;;;;;;;5.82;2.83;;;;;;;26.67;33.42;100260.00;5073211;28;20064;-72
2022/07/22 00:38:22;;;;;;;5.05;2.67;;;;;;;26.68;33.98;100254.31;5071322;28;20218;-73
2022/07/22 00:40:50;;;;;;;4.20;2.80;;;;;;;26.64;34.29;100255.78;5073074;28;20071;-73
2022/07/22 00:43:18;;;;;;;5.00;2.65;;;;;;;26.52;34.77;100255.41;5072705;28;20045;-74
2022/07/22 00:45:47;;;;;;;5.38;2.78;;;;;;;26.62;33.76;100254.25;5072981;28;20127;-73
2022/07/22 00:48:15;;;;;;;6.45;3.10;;;;;;;26.46;34.50;100249.91;5072745;28;20500;-73
2022/07/22 00:50:43;;;;;;;6.45;2.95;;;;;;;26.29;36.35;100253.91;5072621;28;20041;-73
2022/07/22 00:53:13;;;;;;;4.78;2.55;;;;;;;26.13;37.31;100250.34;5071656;28;20049;-72
2022/07/22 00:55:42;;;;;;;7.55;3.20;;;;;;;26.06;36.37;100252.19;5072798;28;20047;-71
2022/07/22 00:58:10;;;;;;;6.18;2.92;;;;;;;25.95;37.68;100258.13;5072929;28;20044;-74
2022/07/22 01:00:38;;;;;;;8.43;3.03;;;;;;;25.79;38.24;100255.63;5072413;28;20041;-73
2022/07/22 01:03:06;;;;;;;7.68;3.10;;;;;;;25.68;39.57;100259.66;5072841;28;20045;-74
2022/07/22 01:05:34;;;;;;;5.72;2.97;;;;;;;25.69;37.71;100256.75;5071263;28;20067;-74
2022/07/22 01:08:06;;;;;;;6.68;3.00;;;;;;;25.72;38.42;100265.63;5072883;28;20056;-74
2022/07/22 01:10:36;;;;;;;5.80;3.25;;;;;;;25.65;38.13;100257.28;5072550;28;20627;-74
2022/07/22 01:13:04;;;;;;;6.88;3.17;;;;;;;25.58;38.50;100264.56;5072494;28;20045;-76
2022/07/22 01:15:33;;;;;;;8.00;3.40;;;;;;;25.61;38.53;100258.72;5072187;28;20050;-76
2022/07/22 01:18:02;;;;;;;4.88;3.10;;;;;;;25.35;40.71;100262.78;5072768;28;20040;-76
2022/07/22 01:20:31;;;;;;;5.93;2.95;;;;;;;25.19;40.85;100267.56;5072467;28;20080;-76
2022/07/22 01:23:00;;;;;;;8.50;4.00;;;;;;;25.18;41.24;100272.16;5076242;28;20051;-76
2022/07/22 01:25:28;;;;;;;8.15;4.28;;;;;;;25.13;41.07;100274.63;5075864;28;20454;-76
2022/07/22 01:27:56;;;;;;;7.18;3.80;;;;;;;25.02;42.04;100278.66;5076164;28;20128;-75
2022/07/22 01:30:24;;;;;;;7.93;3.58;;;;;;;24.88;42.14;100282.13;5076155;28;20115;-77
2022/07/22 01:32:52;;;;;;;7.00;3.75;;;;;;;24.80;42.42;100282.22;5076226;28;20382;-77
2022/07/22 01:35:20;;;;;;;6.60;3.83;;;;;;;24.75;42.49;100274.59;5075835;28;20102;-77
2022/07/22 01:37:50;;;;;;;7.80;4.03;;;;;;;24.71;42.38;100269.69;5076104;28;20110;-76
2022/07/22 01:40:18;;;;;;;8.93;4.15;;;;;;;24.66;42.10;100272.13;5075772;28;20110;-78
2022/07/22 01:42:47;;;;;;;9.65;3.80;;;;;;;24.68;42.21;100275.50;5075785;28;20551;-77
2022/07/22 01:45:15;;;;;;;8.13;4.35;;;;;;;24.71;42.54;100273.28;5076154;28;20090;-77
2022/07/22 01:47:43;;;;;;;7.22;4.05;;;;;;;24.79;42.39;100266.88;5076054;28;20135;-77
2022/07/22 01:50:12;;;;;;;9.63;3.97;;;;;;;24.89;41.72;100267.47;5075977;28;20043;-77
2022/07/22 01:52:41;;;;;;;7.00;4.10;;;;;;;24.69;42.70;100274.47;5075542;28;20045;-76
2022/07/22 01:55:11;;;;;;;7.35;4.35;;;;;;;24.99;42.09;100272.66;5074397;28;20580;-76
2022/07/22 01:57:39;;;;;;;8.55;3.80;;;;;;;25.16;41.53;100267.94;5075643;28;20090;-76
2022/07/22 02:00:11;;;;;;;8.82;4.25;;;;;;;25.04;42.08;100276.56;5075816;28;20512;-75
2022/07/22 02:02:39;;;;;;;10.52;4.82;;;;;;;25.04;42.38;100273.84;5075572;28;20131;-74
2022/07/22 02:05:08;;;;;;;12.20;4.20;;;;;;;24.90;42.61;100280.09;5075712;28;20047;-74
2022/07/22 02:07:36;;;;;;;6.60;3.55;;;;;;;25.00;41.98;100275.22;5075332;28;20044;-75
2022/07/22 02:10:06;;;;;;;7.68;4.10;;;;;;;24.99;43.10;100270.78;5075717;28;20470;-74
2022/07/22 02:12:35;;;;;;;8.45;4.18;;;;;;;24.89;43.07;100275.66;5073868;28;20565;-74
2022/07/22 02:15:05;;;;;;;7.65;3.95;;;;;;;24.74;43.57;100274.78;5075518;28;20047;-74
2022/07/22 02:17:33;;;;;;;9.10;4.18;;;;;;;24.63;43.96;100275.22;5075051;28;20048;-75
2022/07/22 02:20:02;;;;;;;8.40;4.00;;;;;;;24.58;45.09;100280.34;5075222;28;20036;-74
2022/07/22 02:22:30;;;;;;;14.02;4.32;;;;;;;24.46;45.22;100286.22;5075222;28;20055;-75
2022/07/22 02:24:58;;;;;;;7.72;3.63;;;;;;;24.39;45.16;100282.53;5074918;28;20076;-75
2022/07/22 02:27:26;;;;;;;7.95;3.85;;;;;;;24.51;44.31;100291.13;5075048;28;20040;-75
2022/07/22 02:29:56;;;;;;;8.88;4.32;;;;;;;24.78;43.44;100292.47;5075192;28;20043;-74
2022/07/22 02:32:24;;;;;;;7.50;4.03;;;;;;;24.94;42.43;100283.28;5074522;28;20446;-77
2022/07/22 02:34:52;;;;;;;7.60;3.90;;;;;;;24.94;41.50;100288.75;5074937;28;20051;-77
2022/07/22 02:37:20;;;;;;;8.68;4.18;;;;;;;24.76;42.10;100295.38;5074915;28;20048;-80
2022/07/22 02:39:48;;;;;;;8.00;3.88;;;;;;;24.74;41.45;100293.88;5073932;28;20559;-77
2022/07/22 02:42:17;;;;;;;9.43;4.13;;;;;;;24.73;41.47;100297.63;5075076;28;20072;-78
2022/07/22 02:44:45;;;;;;;12.98;3.72;;;;;;;24.73;40.95;100294.91;5074730;28;20091;-78
2022/07/22 02:47:14;;;;;;;7.05;3.58;;;;;;;24.59;41.27;100292.97;5074683;28;20040;-77
2022/07/22 02:49:43;;;;;;;7.03;3.55;;;;;;;24.42;41.85;100294.97;5074380;28;20055;-77
2022/07/22 02:52:11;;;;;;;13.55;4.38;;;;;;;24.33;43.92;100287.88;5074900;28;20072;-77
2022/07/22 02:54:39;;;;;;;9.18;4.05;;;;;;;24.18;44.56;100294.03;5074531;28;20041;-80
2022/07/22 02:57:07;;;;;;;7.40;3.95;;;;;;;24.15;44.46;100299.03;5074631;28;20052;-80
2022/07/22 02:59:36;;;;;;;9.27;4.13;;;;;;;24.14;44.38;100300.06;5074221;28;20504;-80
2022/07/22 03:02:04;;;;;;;7.90;4.15;;;;;;;24.09;44.88;100291.56;5074271;28;20044;-80
2022/07/22 03:04:34;;;;;;;8.65;4.10;;;;;;;23.93;45.47;100298.78;5074327;28;20044;-80
2022/07/22 03:07:02;;;;;;;8.40;3.92;;;;;;;23.92;45.86;100297.06;5074530;28;20051;-77
2022/07/22 03:09:31;;;;;;;8.15;4.10;;;;;;;23.92;46.02;100297.06;5074135;28;20382;-78
2022/07/22 03:11:59;;;;;;;10.43;4.18;;;;;;;24.08;45.35;100306.19;5074146;28;20497;-77
2022/07/22 03:14:27;;;;;;;11.93;4.57;;;;;;;23.78;46.22;100306.00;5073761;28;20053;-78
2022/07/22 03:16:55;;;;;;;8.52;4.13;;;;;;;23.57;46.83;100297.53;5074282;28;20068;-77
2022/07/22 03:19:24;;;;;;;10.68;3.97;;;;;;;23.56;46.78;100302.13;5074020;28;20040;-75
2022/07/22 03:21:53;;;;;;;10.52;4.40;;;;;;;23.70;45.91;100300.56;5073849;28;20158;-72
2022/07/22 03:24:21;;;;;;;9.95;4.40;;;;;;;23.74;46.18;100298.34;5073909;28;20041;-74
2022/07/22 03:26:49;;;;;;;9.25;4.15;;;;;;;23.85;46.29;100306.16;5073929;28;20044;-73
2022/07/22 03:29:18;;;;;;;10.07;3.97;;;;;;;23.87;46.04;100299.50;5074022;28;20041;-73
2022/07/22 03:31:46;;;;;;;8.80;4.00;;;;;;;23.88;46.15;100305.78;5073537;28;20064;-73
2022/07/22 03:34:14;;;;;;;9.20;4.55;;;;;;;23.90;46.45;100310.03;5073896;28;20046;-73
2022/07/22 03:36:42;;;;;;;7.28;3.72;;;;;;;23.90;46.06;100304.56;5073349;28;20071;-73
2022/07/22 03:39:11;;;;;;;10.98;4.38;;;;;;;24.01;46.77;100313.38;5074009;28;20481;-73
2022/07/22 03:41:39;;;;;;;10.52;4.32;;;;;;;24.02;47.29;100317.78;5073318;28;20382;-73
2022/07/22 03:44:08;;;;;;;7.10;3.97;;;;;;;24.18;46.54;100312.28;5072946;28;20049;-75
2022/07/22 03:46:36;;;;;;;9.23;4.05;;;;;;;24.28;45.80;100315.63;5073519;28;20049;-77
2022/07/22 03:49:04;;;;;;;13.15;5.00;;;;;;;24.26;46.82;100310.34;5073665;28;20055;-75
2022/07/22 03:51:32;;;;;;;14.50;5.20;;;;;;;24.37;47.07;100313.72;5072137;28;20057;-75
2022/07/22 03:54:02;;;;;;;12.20;4.50;;;;;;;24.56;46.50;100316.00;5073350;28;20094;-75
2022/07/22 03:56:31;;;;;;;8.80;4.28;;;;;;;25.17;45.18;100311.41;5073364;28;20048;-76
2022/07/22 03:58:59;;;;;;;8.73;4.13;;;;;;;25.74;43.36;100309.97;5071980;28;20516;-75
2022/07/22 04:01:28;;;;;;;10.75;4.40;;;;;;;26.34;41.25;100301.47;5073379;28;20404;-76
2022/07/22 04:03:56;;;;;;;5.88;3.70;;;;;;;26.54;40.91;100312.69;5073238;28;20086;-75
2022/07/22 04:06:31;;;;;;;7.22;3.95;;;;;;;27.52;39.29;100309.13;5073039;28;20504;-76
2022/07/22 04:08:59;;;;;;;7.95;4.50;;;;;;;28.12;37.47;100307.56;5073422;28;20094;-76
2022/07/22 04:11:28;;;;;;;9.10;4.32;;;;;;;28.69;35.59;100309.00;5073082;28;20064;-79
2022/07/22 04:13:57;;;;;;;10.25;4.30;;;;;;;28.21;37.16;100308.22;5073147;28;20048;-75
2022/07/22 04:16:26;;;;;;;12.60;5.22;;;;;;;28.44;37.63;100306.00;5071820;28;20135;-81
2022/07/22 04:18:54;;;;;;;16.77;5.03;;;;;;;28.60;36.98;100303.94;5073298;28;20044;-75
2022/07/22 04:21:23;;;;;;;13.38;4.50;;;;;;;28.79;36.66;100308.59;5072799;28;20051;-76
2022/07/22 04:23:51;;;;;;;11.65;4.13;;;;;;;29.28;36.67;100305.47;5073139;28;20126;-77
2022/07/22 04:26:23;;;;;;;8.93;4.20;;;;;;;29.60;35.53;100301.00;5072840;28;20048;-72
2022/07/22 04:28:51;;;;;;;12.20;4.28;;;;;;;29.88;34.65;100300.69;5072851;28;20251;-76
2022/07/22 04:31:21;;;;;;;10.43;4.65;;;;;;;29.81;34.68;100299.03;5072914;28;20052;-73
2022/07/22 04:33:49;;;;;;;10.65;4.57;;;;;;;29.75;35.50;100297.16;5072905;28;20453;-75
2022/07/22 04:36:17;;;;;;;11.02;4.60;;;;;;;30.01;34.60;100299.78;5073109;28;20036;-76
2022/07/22 04:38:45;;;;;;;9.07;4.47;;;;;;;30.18;34.74;100295.53;5072765;28;20040;-75
2022/07/22 04:41:13;;;;;;;10.00;4.32;;;;;;;30.35;34.60;100298.63;5072820;28;20041;-74
2022/07/22 04:43:42;;;;;;;10.38;5.35;;;;;;;30.38;34.04;100297.31;5072436;28;20044;-76
2022/07/22 04:46:10;;;;;;;10.73;4.47;;;;;;;30.76;33.82;100295.41;5072762;28;20192;-76
2022/07/22 04:48:39;;;;;;;9.07;4.20;;;;;;;30.86;33.47;100294.06;5072838;28;20052;-76
2022/07/22 04:51:07;;;;;;;9.65;4.57;;;;;;;31.38;32.69;100294.72;5073003;28;20044;-79
2022/07/22 04:53:36;;;;;;;11.45;4.70;;;;;;;31.49;33.04;100289.28;5072822;28;20397;-78
2022/07/22 04:56:14;;;;;;;10.38;4.20;;;;;;;31.82;32.13;100293.59;5075793;28;20040;-79
2022/07/22 04:58:44;;;;;;;10.13;4.57;;;;;;;31.69;32.29;100300.09;5076497;28;20044;-79
2022/07/22 05:01:12;;;;;;;10.80;4.28;;;;;;;31.80;32.00;100296.59;5075329;28;20552;-76
2022/07/22 05:03:42;;;;;;;10.27;4.45;;;;;;;32.14;31.18;100302.56;5076510;28;20067;-76
2022/07/22 05:06:10;;;;;;;7.82;3.50;;;;;;;31.98;29.00;100303.19;5076607;28;20485;-76
2022/07/22 05:08:39;;;;;;;9.05;3.63;;;;;;;31.86;28.81;100309.47;5075102;28;20055;-76
2022/07/22 05:11:07;;;;;;;7.57;3.30;;;;;;;32.64;26.82;100307.84;5076535;28;20036;-75
2022/07/22 05:13:36;;;;;;;5.18;3.15;;;;;;;32.54;27.39;100310.31;5075266;28;20081;-75
2022/07/22 05:16:04;;;;;;;5.95;3.03;;;;;;;32.86;27.10;100316.44;5076359;28;20054;-76
2022/07/22 05:18:33;;;;;;;6.18;3.03;;;;;;;32.95;27.39;100312.25;5076405;28;20051;-76
2022/07/22 05:21:03;;;;;;;9.00;3.10;;;;;;;32.93;26.49;100312.50;5076186;28;20552;-75
2022/07/22 05:23:32;;;;;;;9.52;3.40;;;;;;;33.64;25.44;100309.78;5075923;28;20040;-75
2022/07/22 05:26:00;;;;;;;5.05;2.80;;;;;;;33.49;24.97;100316.66;5076366;28;20078;-75
2022/07/22 05:28:32;;;;;;;5.10;2.90;;;;;;;33.94;24.56;100307.72;5075000;28;20072;-73
2022/07/22 05:31:00;;;;;;;7.20;2.78;;;;;;;34.43;24.08;100316.47;5076104;28;20048;-69
2022/07/22 05:33:29;;;;;;;6.75;2.95;;;;;;;34.19;24.14;100314.88;5075984;28;20374;-70
2022/07/22 05:35:57;;;;;;;8.40;3.00;;;;;;;34.82;24.09;100319.41;5075940;28;20405;-72
2022/07/22 05:38:26;;;;;;;6.95;2.97;;;;;;;34.56;23.40;100321.75;5075928;28;20123;-72
2022/07/22 05:40:54;;;;;;;8.05;3.00;;;;;;;35.08;22.45;100326.28;5075718;28;20496;-73
2022/07/22 05:43:22;;;;;;;6.38;2.63;;;;;;;35.22;22.79;100313.75;5075862;28;20048;-70
2022/07/22 05:45:51;;;;;;;7.05;2.70;;;;;;;35.41;22.76;100317.13;5075659;28;20147;-73
2022/07/22 05:48:19;;;;;;;6.65;3.20;;;;;;;35.57;21.93;100319.03;5075905;28;20047;-71
2022/07/22 05:50:47;;;;;;;6.32;2.70;;;;;;;36.27;21.88;100315.53;5075312;28;20036;-73
2022/07/22 05:53:16;;;;;;;7.32;2.83;;;;;;;35.88;21.35;100317.56;5075858;28;20036;-70
2022/07/22 05:55:45;;;;;;;5.60;2.42;;;;;;;35.95;21.15;100317.38;5074177;28;20131;-71
2022/07/22 05:58:13;;;;;;;6.45;2.58;;;;;;;35.47;21.59;100327.22;5075641;28;20101;-71
2022/07/22 06:00:42;;;;;;;10.10;2.95;;;;;;;35.63;21.25;100322.75;5075541;28;20037;-73
2022/07/22 06:03:10;;;;;;;8.88;2.35;;;;;;;34.78;21.99;100329.34;5075569;28;20037;-73
2022/07/22 06:05:45;;;;;;;5.75;2.45;;;;;;;34.20;22.54;100327.63;5074219;28;20072;-73
2022/07/22 06:08:14;;;;;;;5.90;2.15;;;;;;;35.10;21.05;100327.69;5074709;28;20048;-73
2022/07/22 06:10:42;;;;;;;7.20;2.25;;;;;;;35.24;20.55;100334.59;5073831;28;20048;-71
2022/07/22 06:13:12;;;;;;;6.78;2.13;;;;;;;34.88;20.76;100332.28;5075386;28;20041;-77
2022/07/22 06:15:40;;;;;;;5.93;2.33;;;;;;;34.53;21.47;100333.28;5073670;28;20052;-77
2022/07/22 06:18:08;;;;;;;4.55;2.05;;;;;;;34.23;22.42;100335.44;5074355;28;20051;-74
2022/07/22 06:20:37;;;;;;;4.18;2.22;;;;;;;34.61;20.85;100330.13;5074989;28;20051;-71
2022/07/22 06:23:05;;;;;;;7.03;2.45;;;;;;;34.98;20.72;100341.66;5074956;28;20040;-71
2022/07/22 06:25:33;;;;;;;4.80;2.30;;;;;;;34.45;20.95;100342.00;5074534;28;20056;-82
2022/07/22 06:28:12;;;;;;;10.05;2.45;;;;;;;34.19;22.19;100335.09;5074982;28;20048;-73
2022/07/22 06:30:41;;;;;;;5.65;2.35;;;;;;;33.88;21.99;100330.84;5073691;28;20489;-72
2022/07/22 06:33:09;;;;;;;3.97;2.10;;;;;;;33.75;21.54;100331.06;5071846;28;20098;-71
2022/07/22 06:35:40;;;;;;;6.13;2.30;;;;;;;33.61;22.18;100335.16;5074685;28;20059;-70
2022/07/22 06:38:08;;;;;;;7.00;2.40;;;;;;;33.98;21.46;100339.38;5074904;28;20470;-70
2022/07/22 06:40:50;;;;;;;4.60;1.92;;;;;;;33.67;21.62;100340.56;5074394;28;20119;-70
2022/07/22 06:43:20;;;;;;;3.30;2.05;;;;;;;34.40;20.16;100336.38;5071420;28;20052;-71
2022/07/22 06:45:48;;;;;;;5.97;2.25;;;;;;;34.62;21.34;100329.03;5069526;28;20040;-70
2022/07/22 06:48:16;;;;;;;5.10;2.28;;;;;;;34.56;19.95;100326.44;5056829;28;20090;-70
2022/07/22 06:50:44;;;;;;;6.20;2.20;;;;;;;33.63;21.91;100335.75;5059161;28;20037;-73
2022/07/22 06:53:20;;;;;;;5.60;2.30;;;;;;;33.85;21.18;100325.75;5074361;28;20508;-73
2022/07/22 06:55:53;;;;;;;5.70;2.00;;;;;;;34.44;20.33;100329.25;5074049;28;20074;-73
2022/07/22 06:58:22;;;;;;;3.92;1.95;;;;;;;33.74;21.05;100332.97;5074571;28;20079;-73
2022/07/22 07:00:51;;;;;;;3.63;1.90;;;;;;;33.40;21.56;100331.09;5073214;28;20045;-73
2022/07/22 07:03:20;;;;;;;6.07;2.35;;;;;;;33.57;21.87;100324.56;5073121;28;20048;-73
2022/07/22 07:06:03;;;;;;;8.70;2.50;;;;;;;34.18;21.09;100330.66;5074529;28;20040;-73
2022/07/22 07:08:31;;;;;;;6.72;2.80;;;;;;;34.88;20.97;100326.75;5074416;28;20406;-73
2022/07/22 07:11:00;;;;;;;5.25;2.10;;;;;;;34.60;21.23;100322.91;5074200;28;20047;-73
2022/07/22 07:13:30;;;;;;;4.57;2.30;;;;;;;34.04;21.50;100330.06;5073077;28;20052;-73
2022/07/22 07:15:59;;;;;;;4.78;1.98;;;;;;;33.87;21.60;100334.63;5073919;28;20161;-73
2022/07/22 07:18:27;;;;;;;6.78;2.33;;;;;;;33.84;21.49;100332.38;5074246;28;20049;-73
2022/07/22 07:20:56;;;;;;;4.57;2.13;;;;;;;33.59;21.34;100333.50;5073987;28;20094;-73
2022/07/22 07:23:24;;;;;;;7.82;2.28;;;;;;;33.99;23.53;100329.97;5074173;28;20513;-73
2022/07/22 07:25:52;;;;;;;6.38;2.42;;;;;;;34.09;22.12;100326.59;5073578;28;20053;-73
2022/07/22 07:28:21;;;;;;;5.82;2.20;;;;;;;34.47;21.58;100326.00;5073927;28;20037;-73
2022/07/22 07:30:51;;;;;;;5.03;2.50;;;;;;;34.77;20.77;100324.88;5073540;28;20490;-73
2022/07/22 07:33:20;;;;;;;6.90;2.15;;;;;;;34.83;21.13;100327.47;5072725;28;20048;-73
2022/07/22 07:35:48;;;;;;;4.72;1.98;;;;;;;34.19;21.56;100320.41;5072484;28;20049;-74
2022/07/22 07:38:16;;;;;;;4.78;2.35;;;;;;;34.47;21.32;100316.84;5073740;28;20040;-73
2022/07/22 07:40:44;;;;;;;7.75;2.50;;;;;;;34.64;21.32;100310.22;5073417;28;20055;-73
2022/07/22 07:43:12;;;;;;;7.75;2.38;;;;;;;34.67;20.75;100315.28;5073533;28;20045;-73
2022/07/22 07:45:41;;;;;;;4.97;2.00;;;;;;;34.60;20.37;100311.84;5073231;28;20072;-73
2022/07/22 07:48:11;;;;;;;6.25;2.20;;;;;;;34.58;20.22;100313.19;5072315;28;20163;-73
2022/07/22 07:50:39;;;;;;;3.88;2.10;;;;;;;34.50;20.59;100311.66;5071804;28;20127;-78
2022/07/22 07:53:07;;;;;;;3.53;1.92;;;;;;;33.50;21.14;100323.88;5073439;28;20123;-73
2022/07/22 07:55:38;;;;;;;5.13;2.08;;;;;;;33.31;21.35;100319.50;5073327;28;20131;-73
2022/07/22 07:58:06;;;;;;;4.50;2.20;;;;;;;33.40;21.51;100323.63;5073314;28;20426;-73
2022/07/22 08:00:35;;;;;;;5.13;2.38;;;;;;;33.97;20.59;100323.84;5073483;28;20055;-73
2022/07/22 08:03:04;;;;;;;4.65;1.90;;;;;;;34.32;20.12;100317.34;5073339;28;20131;-73
2022/07/22 08:05:36;;;;;;;3.63;1.83;;;;;;;34.08;20.34;100322.13;5072175;28;20459;-73
2022/07/22 08:08:05;;;;;;;5.40;2.25;;;;;;;34.45;20.05;100314.31;5072068;28;20045;-73
2022/07/22 08:10:42;;;;;;;5.55;2.13;;;;;;;34.49;19.95;100315.50;5071845;28;20044;-73
2022/07/22 08:13:28;;;;;;;3.67;2.03;;;;;;;34.02;20.24;100318.41;5071865;28;20048;-73
2022/07/22 08:15:56;;;;;;;4.75;2.20;;;;;;;34.17;19.86;100317.06;5072653;28;20045;-73
2022/07/22 08:18:26;;;;;;;4.60;2.03;;;;;;;34.10;20.51;100311.66;5072185;28;20040;-73
2022/07/22 08:20:56;;;;;;;5.88;2.03;;;;;;;34.01;20.19;100322.25;5072996;28;20146;-73
2022/07/22 08:23:27;;;;;;;4.43;2.30;;;;;;;33.33;20.86;100320.13;5072231;28;20071;-73
2022/07/22 08:25:56;;;;;;;4.95;2.10;;;;;;;33.14;20.51;100313.00;5072641;28;20455;-73
2022/07/22 08:28:24;;;;;;;3.10;1.95;;;;;;;33.49;21.16;100310.25;5072990;28;20046;-73
2022/07/22 08:30:52;;;;;;;4.55;2.10;;;;;;;33.59;20.17;100316.06;5071041;28;20516;-73
2022/07/22 08:33:22;;;;;;;4.32;2.10;;;;;;;33.48;20.16;100311.34;5073143;28;20063;-73
2022/07/22 08:35:50;;;;;;;7.95;2.10;;;;;;;33.44;20.29;100313.78;5071537;28;20053;-73
2022/07/22 08:38:19;;;;;;;5.40;2.28;;;;;;;33.61;20.94;100324.09;5071775;28;20501;-73
2022/07/22 08:40:48;;;;;;;5.78;2.35;;;;;;;33.76;20.54;100316.97;5072752;28;20123;-73
2022/07/22 08:43:16;;;;;;;6.75;2.20;;;;;;;33.73;20.18;100308.34;5071905;28;20048;-73
2022/07/22 08:45:46;;;;;;;8.10;2.25;;;;;;;33.75;19.87;100308.94;5072223;28;20040;-73
2022/07/22 08:48:14;;;;;;;9.45;2.10;;;;;;;33.88;19.65;100310.63;5071804;28;20102;-73
2022/07/22 08:50:42;;;;;;;4.03;2.10;;;;;;;33.62;20.70;100306.44;5072724;28;20140;-79
2022/07/22 08:53:12;;;;;;;6.32;2.10;;;;;;;33.68;20.04;100297.16;5071922;28;20080;-72
2022/07/22 08:55:45;;;;;;;5.05;2.10;;;;;;;33.88;20.00;100305.94;5071703;28;20052;-73
2022/07/22 08:58:14;;;;;;;5.88;2.40;;;;;;;34.08;20.16;100303.59;5072779;28;20120;-73
2022/07/22 09:00:43;;;;;;;4.75;2.17;;;;;;;33.79;20.12;100315.66;5072517;28;20097;-85
2022/07/22 09:03:20;;;;;;;5.85;2.10;;;;;;;34.06;20.39;100302.16;5071490;28;20079;-73
2022/07/22 09:05:49;;;;;;;4.45;2.03;;;;;;;34.12;19.80;100301.16;5071169;28;20060;-73
2022/07/22 09:08:17;;;;;;;6.68;2.17;;;;;;;33.82;20.45;100306.88;5072848;28;20045;-73
2022/07/22 09:10:47;;;;;;;5.90;2.30;;;;;;;33.79;20.86;100299.91;5072309;28;20119;-73
2022/07/22 09:13:18;;;;;;;7.45;2.42;;;;;;;33.68;20.59;100308.22;5072832;28;20044;-73
2022/07/22 09:15:49;;;;;;;4.97;2.22;;;;;;;33.39;20.50;100302.56;5072632;28;20049;-73
2022/07/22 09:18:18;;;;;;;5.25;2.20;;;;;;;33.65;20.69;100295.72;5071419;28;20087;-73
2022/07/22 09:20:47;;;;;;;6.50;2.35;;;;;;;33.62;21.17;100300.91;5072276;28;20076;-73
2022/07/22 09:23:20;;;;;;;6.20;2.38;;;;;;;33.85;20.34;100293.38;5072363;28;20051;-73
2022/07/22 09:25:50;;;;;;;10.15;2.80;;;;;;;33.79;21.05;100288.00;5072251;28;20124;-73
2022/07/22 09:28:20;;;;;;;7.50;2.60;;;;;;;33.95;20.92;100298.31;5072420;28;20047;-73
2022/07/22 09:30:51;;;;;;;;;;;;;;;33.97;21.14;100290.66;5072619;28;20052;-73
2022/07/22 09:33:23;;;;;;;8.43;2.78;;;;;;;34.18;20.08;100296.59;5072451;28;19948;-72
2022/07/22 09:35:53;;;;;;;6.47;2.40;;;;;;;34.12;20.41;100282.63;5071942;28;20094;-73
2022/07/22 09:38:31;;;;;;;8.05;2.95;;;;;;;33.94;20.73;100284.75;5072189;28;20079;-73
2022/07/22 09:41:00;;;;;;;4.38;2.42;;;;;;;33.80;20.66;100289.69;5072156;28;20068;-73
2022/07/22 09:43:34;;;;;;;4.47;2.58;;;;;;;33.91;20.64;100288.00;5075456;28;20493;-73
2022/07/22 09:46:04;;;;;;;6.30;2.50;;;;;;;33.97;21.03;100285.13;5075619;28;20444;-73
2022/07/22 09:48:33;;;;;;;9.50;2.72;;;;;;;34.07;20.71;100285.31;5076045;28;20049;-73
2022/07/22 09:51:01;;;;;;;7.90;2.45;;;;;;;34.25;19.92;100284.25;5074352;28;20049;-73
2022/07/22 09:53:31;;;;;;;5.20;2.60;;;;;;;34.32;21.01;100268.34;5075982;28;20055;-73
2022/07/22 09:55:59;;;;;;;5.32;2.47;;;;;;;34.49;20.41;100282.28;5074313;28;20060;-73
2022/07/22 09:58:29;;;;;;;7.32;2.72;;;;;;;34.30;20.47;100280.78;5074223;28;20051;-73
2022/07/22 10:00:59;;;;;;;5.45;2.78;;;;;;;34.35;20.40;100275.31;5074230;28;20131;-73
2022/07/22 10:03:30;;;;;;;7.20;3.35;;;;;;;34.39;20.29;100282.09;5075618;28;20123;-73
2022/07/22 10:05:59;;;;;;;7.72;3.00;;;;;;;34.49;20.59;100271.19;5075523;28;20542;-73
2022/07/22 10:08:30;;;;;;;10.07;2.60;;;;;;;34.47;20.27;100262.31;5074370;28;20045;-73
2022/07/22 10:11:01;;;;;;;6.22;2.60;;;;;;;34.42;20.39;100264.97;5073865;28;20057;-73
2022/07/22 10:13:32;;;;;;;4.77;2.77;;;;;;;34.35;20.17;100267.00;5075752;28;20044;-73
2022/07/22 10:16:01;;;;;;;6.65;2.75;;;;;;;34.37;20.97;100264.84;5075345;28;20049;-73
2022/07/22 10:18:30;;;;;;;5.78;2.75;;;;;;;34.55;21.02;100259.13;5074257;28;20127;-73
2022/07/22 10:21:05;;;;;;;10.50;2.83;;;;;;;34.67;20.66;100257.13;5074981;28;20040;-73
2022/07/22 10:23:33;;;;;;;6.40;2.95;;;;;;;34.77;20.55;100259.22;5075397;28;20075;-73
2022/07/22 10:26:03;;;;;;;9.60;3.05;;;;;;;34.84;20.95;100257.16;5073511;28;20061;-73
2022/07/22 10:28:34;;;;;;;7.03;2.80;;;;;;;34.83;20.77;100254.59;5075361;28;20041;-73
2022/07/22 10:31:20;;;;;;;4.07;2.30;;;;;;;34.91;20.50;100252.28;5074949;28;20115;-73
2022/07/22 10:33:50;;;;;;;7.22;2.88;;;;;;;35.07;21.00;100253.38;5075067;28;20125;-83
2022/07/22 10:36:32;;;;;;;6.28;2.60;;;;;;;35.21;20.16;100251.91;5074756;28;20147;-73
2022/07/22 10:39:07;;;;;;;6.00;2.90;;;;;;;35.07;20.71;100247.00;5073452;28;20045;-73
2022/07/22 10:41:37;;;;;;;6.40;2.97;;;;;;;34.84;20.57;100245.19;5075058;28;20545;-73
2022/07/22 10:44:07;;;;;;;5.93;3.00;;;;;;;34.99;21.14;100243.56;5073491;28;20053;-73
2022/07/22 10:46:58;;;;;;;7.63;2.95;;;;;;;34.99;21.37;100238.00;5074542;28;20041;-73
2022/07/22 10:49:27;;;;;;;6.75;2.92;;;;;;;35.10;20.94;100233.47;5074771;28;20494;-73
2022/07/22 10:52:20;;;;;;;5.03;3.00;;;;;;;35.13;20.65;100234.88;5074717;28;20048;-73
2022/07/22 10:55:20;;;;;;;9.80;2.88;;;;;;;35.11;20.75;100235.13;5072483;28;20414;-73
2022/07/22 10:57:49;;;;;;;7.32;2.85;;;;;;;35.07;20.08;100228.44;5073107;28;20513;-73
2022/07/22 11:00:18;;;;;;;9.98;3.20;;;;;;;34.99;20.71;100226.91;5074723;28;20086;-73
2022/07/22 11:02:47;;;;;;;5.72;3.28;;;;;;;35.05;20.47;100219.53;5073207;28;20098;-73
2022/07/22 11:05:24;;;;;;;9.68;3.15;;;;;;;35.10;20.75;100219.59;5073285;28;20127;-73
2022/07/22 11:07:52;;;;;;;9.02;3.00;;;;;;;35.29;20.33;100218.22;5074402;28;20086;-74
2022/07/22 11:10:22;;;;;;;7.22;3.10;;;;;;;35.35;20.49;100215.53;5073145;28;20102;-73
2022/07/22 11:12:51;;;;;;;6.43;3.20;;;;;;;35.47;20.61;100219.06;5072986;28;20110;-73
2022/07/22 11:15:26;;;;;;;6.25;3.22;;;;;;;35.55;20.66;100218.59;5074064;28;20040;-73
2022/07/22 11:17:57;;;;;;;6.45;3.08;;;;;;;35.64;20.21;100211.53;5072551;28;20055;-73
2022/07/22 11:20:26;;;;;;;6.75;3.00;;;;;;;35.66;20.70;100206.53;5072916;28;20048;-75
2022/07/22 11:22:55;;;;;;;9.38;3.50;;;;;;;35.62;21.21;100205.41;5073950;28;20426;-73
2022/07/22 11:25:27;;;;;;;6.00;3.42;;;;;;;35.71;21.16;100209.41;5073971;28;20076;-73
2022/07/22 11:27:57;;;;;;;6.47;3.17;;;;;;;35.90;20.83;100206.28;5072546;28;20075;-73
2022/07/22 11:30:27;;;;;;;7.50;3.40;;;;;;;35.96;21.58;100210.81;5074250;28;20071;-73
2022/07/22 11:32:56;;;;;;;6.57;3.42;;;;;;;35.81;21.24;100205.91;5073741;28;20143;-74
2022/07/22 11:35:24;;;;;;;8.27;3.47;;;;;;;35.67;21.23;100194.34;5073866;28;20049;-73